You are not logged in, Click here to log in
開羅國際機場CAI / HECA 埃及首都開羅市中心東北約15公里
ICAO: HECA Country: 埃及首都開羅市中心東北約15公里
Latitude: 30.1219 Longitude: 31.4056
Total Arrivals: 13 Total Departures: 13
Latest Arrival: FS-9066 (LROP-HECA)Arthur. Kung Latest Departure: QR1306 (HECA-OTHH)Arthur. Kung
Scenery:
METAR : HECA 240500Z 29006KT 3000 BR SCT025 BKN070 22/19 Q1014 NOSIG

開羅國際機場CAI

You are accessing this site from IP address 34.201.9.19. Virtual Airline. CMS by phpVMS.Website designed by Zumeweb and edited by Theo Bearman.
There is 0 User(s) Online: | and 23 Guest(s) Online.
All information on this site is for fight simulation purposes only. This site is for flight logging for pilots of Virtual Airline&模擬飛行論壇 FlySim only.